Time;durP1;ratioP1;P1;durP2;ratioP2;P2;SDS_P1;SDS_P2;PMS_P1;PMS_P2;Temp;Humidity;BMP_temperature;BMP_pressure;BME280_temperature;BME280_humidity;BME280_pressure;Samples;Min_cycle;Max_cycle;Signal;HPM_P1;HPM_P2
2023/12/05 00:02:11;;;;;;;50.58;29.05;;;2.20;99.00;;;;;;4973955;28;20031;-81
2023/12/05 00:04:37;;;;;;;47.83;26.35;;;2.20;98.70;;;;;;4975967;28;20027;-76
2023/12/05 00:07:03;;;;;;;42.63;25.80;;;2.20;98.50;;;;;;4975368;28;20050;-80
2023/12/05 00:09:29;;;;;;;39.97;25.98;;;2.20;98.50;;;;;;4975161;28;20039;-76
2023/12/05 00:11:55;;;;;;;40.58;24.63;;;2.30;98.60;;;;;;4975582;28;20037;-79
2023/12/05 00:14:21;;;;;;;44.58;24.92;;;2.20;98.10;;;;;;4975603;28;20030;-81
2023/12/05 00:16:46;;;;;;;36.40;22.50;;;2.20;98.30;;;;;;4975051;28;20031;-81
2023/12/05 00:19:12;;;;;;;35.38;22.20;;;2.30;98.20;;;;;;4975565;28;20034;-79
2023/12/05 00:21:38;;;;;;;39.03;23.23;;;2.20;97.90;;;;;;4975376;28;20054;-76
2023/12/05 00:24:04;;;;;;;36.85;21.67;;;2.30;98.30;;;;;;4975302;28;20454;-77
2023/12/05 00:26:32;;;;;;;38.78;24.15;;;2.30;98.40;;;;;;4975282;28;20034;-79
2023/12/05 00:28:58;;;;;;;44.95;24.75;;;2.40;98.40;;;;;;4974917;28;20015;-77
2023/12/05 00:31:24;;;;;;;40.03;22.95;;;2.40;98.20;;;;;;4975837;28;20042;-75
2023/12/05 00:33:49;;;;;;;42.55;26.38;;;2.40;98.30;;;;;;4976807;28;20513;-79
2023/12/05 00:36:15;;;;;;;50.13;31.30;;;2.40;97.80;;;;;;4977287;28;20022;-81
2023/12/05 00:38:41;;;;;;;40.13;25.27;;;2.40;97.90;;;;;;4978124;28;20042;-80
2023/12/05 00:41:07;;;;;;;38.28;23.85;;;2.30;97.80;;;;;;4976523;28;20027;-79
2023/12/05 00:43:33;;;;;;;38.03;23.20;;;2.20;98.10;;;;;;4977878;28;20106;-79
2023/12/05 00:45:59;;;;;;;39.30;22.98;;;2.10;98.30;;;;;;4977437;28;20065;-78
2023/12/05 00:48:25;;;;;;;38.08;23.30;;;2.10;98.50;;;;;;4959375;28;20026;-79
2023/12/05 00:50:51;;;;;;;38.65;24.60;;;2.00;98.10;;;;;;4976751;28;20485;-78
2023/12/05 00:53:17;;;;;;;46.03;27.38;;;2.00;98.10;;;;;;4976258;28;20110;-81
2023/12/05 00:55:43;;;;;;;55.92;27.58;;;1.90;98.00;;;;;;4975180;28;20422;-80
2023/12/05 00:58:08;;;;;;;45.30;26.17;;;1.90;98.50;;;;;;4975948;28;20035;-75
2023/12/05 01:00:34;;;;;;;48.10;27.70;;;1.90;98.90;;;;;;4974282;28;20098;-79
2023/12/05 01:03:00;;;;;;;43.67;24.70;;;2.00;99.10;;;;;;4974955;28;20038;-78
2023/12/05 01:05:26;;;;;;;41.75;25.52;;;2.00;99.20;;;;;;4974685;28;20026;-80
2023/12/05 01:07:52;;;;;;;50.75;31.95;;;2.10;99.20;;;;;;4974571;28;20101;-76
2023/12/05 01:10:18;;;;;;;52.22;33.40;;;2.10;99.30;;;;;;4974713;28;20053;-76
2023/12/05 01:12:45;;;;;;;63.75;39.00;;;2.10;99.20;;;;;;4977308;28;20034;-76
2023/12/05 01:15:11;;;;;;;59.20;35.47;;;2.20;99.50;;;;;;4976627;28;20029;-76
2023/12/05 01:17:37;;;;;;;84.07;43.90;;;2.20;99.30;;;;;;4976561;28;20035;-77
2023/12/05 01:20:07;;;;;;;67.60;42.70;;;2.20;99.30;;;;;;4976773;28;20023;-80
2023/12/05 01:22:33;;;;;;;65.05;42.17;;;2.20;99.40;;;;;;4973952;28;20035;-80
2023/12/05 01:24:59;;;;;;;55.70;34.20;;;2.20;99.30;;;;;;4975502;28;20029;-76
2023/12/05 01:27:24;;;;;;;54.60;35.63;;;2.20;99.30;;;;;;4976831;28;20039;-81
2023/12/05 01:29:50;;;;;;;60.63;34.35;;;2.20;99.50;;;;;;4975648;28;20500;-74
2023/12/05 01:32:16;;;;;;;50.53;30.33;;;2.20;99.30;;;;;;4976409;28;20077;-77
2023/12/05 01:34:42;;;;;;;49.92;29.65;;;2.30;99.70;;;;;;4975147;28;20537;-81
2023/12/05 01:37:08;;;;;;;43.03;26.45;;;2.30;99.40;;;;;;4974048;28;20034;-81
2023/12/05 01:39:34;;;;;;;46.78;27.40;;;2.30;99.70;;;;;;4973487;28;20457;-80
2023/12/05 01:42:00;;;;;;;46.70;25.33;;;2.40;99.10;;;;;;4974283;28;20488;-81
2023/12/05 01:44:26;;;;;;;45.38;25.00;;;2.40;99.10;;;;;;4974375;28;20074;-80
2023/12/05 01:46:52;;;;;;;41.05;25.35;;;2.40;99.10;;;;;;4974634;28;20066;-78
2023/12/05 01:49:18;;;;;;;44.13;24.13;;;2.40;99.10;;;;;;4974122;28;20089;-80
2023/12/05 01:51:45;;;;;;;46.25;25.58;;;2.50;99.00;;;;;;4973658;28;20073;-78
2023/12/05 01:54:11;;;;;;;47.25;24.63;;;2.50;99.30;;;;;;4974044;28;20023;-77
2023/12/05 01:56:37;;;;;;;41.33;23.13;;;2.60;99.20;;;;;;4973739;28;20375;-80
2023/12/05 01:59:03;;;;;;;41.22;22.60;;;2.60;99.10;;;;;;4973750;28;20026;-82
2023/12/05 02:01:29;;;;;;;34.88;21.13;;;2.60;98.50;;;;;;4978409;28;20034;-74
2023/12/05 02:03:57;;;;;;;39.80;23.13;;;2.60;98.90;;;;;;4981860;28;20077;-74
2023/12/05 02:06:26;;;;;;;41.58;22.90;;;2.60;98.70;;;;;;4974590;28;20089;-80
2023/12/05 02:08:53;;;;;;;37.33;22.17;;;2.70;98.40;;;;;;4974536;28;20570;-82
2023/12/05 02:11:19;;;;;;;47.30;23.85;;;2.70;98.40;;;;;;4974460;28;20062;-78
2023/12/05 02:13:47;;;;;;;48.65;28.35;;;2.70;98.40;;;;;;4977214;28;20090;-79
2023/12/05 02:16:30;;;;;;;55.22;28.83;;;2.60;98.30;;;;;;4975430;28;20049;-80
2023/12/05 02:19:04;;;;;;;63.47;32.75;;;2.70;98.60;;;;;;4965115;28;20023;-80
2023/12/05 02:21:33;;;;;;;60.00;35.75;;;2.80;98.50;;;;;;4976513;28;20084;-80
2023/12/05 02:24:25;;;;;;;51.60;30.75;;;2.80;98.50;;;;;;4975923;28;20058;-79
2023/12/05 02:27:10;;;;;;;52.20;30.20;;;2.80;98.20;;;;;;4975185;28;20098;-75
2023/12/05 02:29:48;;;;;;;45.08;24.50;;;2.70;98.70;;;;;;4975553;28;20027;-80
2023/12/05 02:32:14;;;;;;;40.90;24.00;;;2.60;98.60;;;;;;4976849;28;20031;-80
2023/12/05 02:34:40;;;;;;;47.50;28.05;;;2.50;98.60;;;;;;4972743;28;20035;-78
2023/12/05 02:37:34;;;;;;;49.58;30.20;;;2.50;98.90;;;;;;4974512;28;20042;-76
2023/12/05 02:40:07;;;;;;;51.30;31.33;;;2.60;99.10;;;;;;4961497;28;20081;-75
2023/12/05 02:42:33;;;;;;;;;;;2.60;99.00;;;;;;4976309;28;20490;-81
2023/12/05 02:45:02;;;;;;;41.92;25.08;;;2.70;99.40;;;;;;4977100;28;19906;-76
2023/12/05 02:47:30;;;;;;;44.47;24.58;;;2.60;99.40;;;;;;4975911;28;20085;-81
2023/12/05 02:49:56;;;;;;;33.10;21.80;;;2.60;99.70;;;;;;4977549;28;20054;-78
2023/12/05 02:52:23;;;;;;;31.17;18.30;;;2.60;99.90;;;;;;4975581;28;20026;-76
2023/12/05 02:54:49;;;;;;;33.53;19.55;;;2.60;99.90;;;;;;4975833;28;20186;-82
2023/12/05 02:57:15;;;;;;;35.40;19.85;;;2.70;99.90;;;;;;4977168;28;20066;-79
2023/12/05 02:59:41;;;;;;;38.15;20.35;;;2.70;99.90;;;;;;4968953;28;20049;-80
2023/12/05 03:02:07;;;;;;;33.15;18.42;;;2.60;99.90;;;;;;4975464;28;20102;-78
2023/12/05 03:04:32;;;;;;;39.65;20.20;;;2.60;99.90;;;;;;4975810;28;20023;-75
2023/12/05 03:06:58;;;;;;;33.60;19.67;;;2.50;99.90;;;;;;4981509;28;20023;-78
2023/12/05 03:09:24;;;;;;;33.42;19.73;;;2.50;99.90;;;;;;4981740;28;20474;-79
2023/12/05 03:11:52;;;;;;;40.28;21.00;;;2.50;99.90;;;;;;4980838;28;20102;-81
2023/12/05 03:14:17;;;;;;;42.35;24.13;;;2.50;99.90;;;;;;4981360;28;20031;-77
2023/12/05 03:16:43;;;;;;;42.67;23.17;;;2.50;99.90;;;;;;4985274;28;20022;-77
2023/12/05 03:19:09;;;;;;;42.85;23.80;;;2.50;99.90;;;;;;4979325;28;20169;-82
2023/12/05 03:21:35;;;;;;;42.00;23.20;;;2.50;99.90;;;;;;4978311;28;20116;-77
2023/12/05 03:24:01;;;;;;;47.13;24.23;;;2.50;99.90;;;;;;4974426;28;20050;-78
2023/12/05 03:26:27;;;;;;;41.40;23.17;;;2.50;99.90;;;;;;4984226;28;20493;-75
2023/12/05 03:28:53;;;;;;;45.95;24.20;;;2.50;99.90;;;;;;4986047;28;20035;-78
2023/12/05 03:31:18;;;;;;;46.95;24.02;;;2.50;99.90;;;;;;4987614;28;20027;-82
2023/12/05 03:33:45;;;;;;;42.85;24.25;;;2.50;99.90;;;;;;4997296;28;20109;-78
2023/12/05 03:36:12;;;;;;;44.92;21.45;;;2.50;99.90;;;;;;4990304;28;20031;-80
2023/12/05 03:38:38;;;;;;;42.28;23.23;;;2.40;99.90;;;;;;4987746;28;20031;-80
2023/12/05 03:41:05;;;;;;;38.83;21.58;;;2.40;99.90;;;;;;4986140;28;20078;-81
2023/12/05 03:43:31;;;;;;;35.20;20.27;;;2.40;99.90;;;;;;4983025;28;20508;-80
2023/12/05 03:45:57;;;;;;;36.50;21.17;;;2.50;99.90;;;;;;4985010;28;20025;-80
2023/12/05 03:48:23;;;;;;;38.63;22.63;;;2.40;99.90;;;;;;4983363;28;20031;-80
2023/12/05 03:50:49;;;;;;;34.15;21.73;;;2.50;99.90;;;;;;4982736;28;20025;-74
2023/12/05 03:53:15;;;;;;;48.55;24.98;;;2.50;99.90;;;;;;4980641;28;20130;-77
2023/12/05 03:55:40;;;;;;;33.53;20.73;;;2.50;99.90;;;;;;4980391;28;20401;-81
2023/12/05 03:58:06;;;;;;;35.08;19.85;;;2.60;99.90;;;;;;4981633;28;20548;-80
2023/12/05 04:00:32;;;;;;;38.70;21.25;;;2.60;99.90;;;;;;4984804;28;20018;-76
2023/12/05 04:02:58;;;;;;;36.90;21.70;;;2.60;99.90;;;;;;4985527;28;20501;-80
2023/12/05 04:05:24;;;;;;;40.15;24.02;;;2.70;99.90;;;;;;4982985;28;20019;-78
2023/12/05 04:07:50;;;;;;;37.10;22.85;;;2.70;99.90;;;;;;4982320;28;20022;-80
2023/12/05 04:10:16;;;;;;;33.80;20.70;;;2.70;99.90;;;;;;4983176;28;20046;-80
2023/12/05 04:12:42;;;;;;;36.75;20.48;;;2.80;99.90;;;;;;4984307;28;20039;-77
2023/12/05 04:15:08;;;;;;;34.65;19.80;;;2.80;99.90;;;;;;4986795;28;20015;-80
2023/12/05 04:17:34;;;;;;;37.17;24.40;;;2.80;99.90;;;;;;4981203;28;20042;-77
2023/12/05 04:20:00;;;;;;;42.35;23.83;;;2.80;99.90;;;;;;4985567;28;20023;-75
2023/12/05 04:22:26;;;;;;;42.15;23.13;;;2.80;99.90;;;;;;4983722;28;20058;-82
2023/12/05 04:24:53;;;;;;;38.10;22.63;;;2.80;99.90;;;;;;4983008;28;20023;-80
2023/12/05 04:27:19;;;;;;;36.60;21.40;;;2.80;99.90;;;;;;4983085;28;20022;-81
2023/12/05 04:29:45;;;;;;;39.22;22.33;;;2.80;99.90;;;;;;4988833;28;20070;-77
2023/12/05 04:32:11;;;;;;;39.10;22.48;;;2.80;99.90;;;;;;4985823;28;20113;-77
2023/12/05 04:34:41;;;;;;;40.25;23.58;;;2.90;99.90;;;;;;4985190;28;20026;-81
2023/12/05 04:37:08;;;;;;;38.90;24.35;;;2.90;99.90;;;;;;4987600;28;20034;-79
2023/12/05 04:39:35;;;;;;;41.15;24.25;;;3.00;99.90;;;;;;4972809;28;20030;-75
2023/12/05 04:42:01;;;;;;;43.05;26.73;;;3.00;99.90;;;;;;4985590;28;20501;-78
2023/12/05 04:44:29;;;;;;;47.13;29.55;;;3.00;99.90;;;;;;4988300;28;20050;-75
2023/12/05 04:46:57;;;;;;;48.88;29.27;;;3.10;99.90;;;;;;4988929;28;20118;-75
2023/12/05 04:49:23;;;;;;;49.88;29.27;;;3.00;99.90;;;;;;4985994;28;20034;-79
2023/12/05 04:51:49;;;;;;;44.80;24.95;;;3.00;99.90;;;;;;4988360;28;20030;-77
2023/12/05 04:54:15;;;;;;;36.88;21.13;;;3.10;99.90;;;;;;4981378;28;20529;-80
2023/12/05 04:56:42;;;;;;;39.47;19.55;;;3.10;99.90;;;;;;4958450;28;20544;-76
2023/12/05 04:59:08;;;;;;;34.35;20.02;;;3.10;99.90;;;;;;4978969;28;20018;-74
2023/12/05 05:01:34;;;;;;;40.90;22.13;;;3.10;99.90;;;;;;4976893;28;20491;-76
2023/12/05 05:03:59;;;;;;;46.75;23.52;;;3.10;99.90;;;;;;4974034;28;20031;-75
2023/12/05 05:06:25;;;;;;;39.78;20.95;;;3.00;99.90;;;;;;4968452;28;20027;-78
2023/12/05 05:08:51;;;;;;;40.47;22.65;;;2.90;99.90;;;;;;4976009;28;20023;-80
2023/12/05 05:11:17;;;;;;;44.60;22.95;;;2.90;99.90;;;;;;4975500;28;20094;-77
2023/12/05 05:13:43;;;;;;;37.22;22.38;;;2.90;99.90;;;;;;4975091;28;20033;-78
2023/12/05 05:16:10;;;;;;;37.40;19.63;;;3.00;99.90;;;;;;4979021;28;20039;-76
2023/12/05 05:18:37;;;;;;;43.30;19.48;;;2.90;99.90;;;;;;4976310;28;20035;-73
2023/12/05 05:21:06;;;;;;;35.88;20.92;;;2.90;99.90;;;;;;4979104;28;20387;-73
2023/12/05 05:23:33;;;;;;;35.65;19.08;;;2.90;99.90;;;;;;4981289;28;20050;-75
2023/12/05 05:25:59;;;;;;;40.45;21.77;;;2.90;99.90;;;;;;4978472;28;20080;-74
2023/12/05 05:28:25;;;;;;;35.03;19.65;;;2.90;99.90;;;;;;4985218;28;20458;-74
2023/12/05 05:30:54;;;;;;;44.38;21.08;;;2.90;99.90;;;;;;4981376;28;20059;-78
2023/12/05 05:33:23;;;;;;;39.17;20.63;;;3.00;99.90;;;;;;4975934;28;20026;-76
2023/12/05 05:35:49;;;;;;;37.28;18.98;;;3.00;99.90;;;;;;4973989;28;20581;-72
2023/12/05 05:38:16;;;;;;;36.45;19.05;;;3.00;99.90;;;;;;4973873;28;20030;-75
2023/12/05 05:40:42;;;;;;;40.13;20.70;;;3.00;99.90;;;;;;4973483;28;20162;-74
2023/12/05 05:43:09;;;;;;;32.53;19.45;;;3.00;99.90;;;;;;4973919;28;20023;-74
2023/12/05 05:45:35;;;;;;;35.53;18.33;;;3.00;99.90;;;;;;4973122;28;20073;-73
2023/12/05 05:48:01;;;;;;;38.17;22.25;;;3.00;99.90;;;;;;4973590;28;20033;-79
2023/12/05 05:50:26;;;;;;;37.70;21.35;;;3.00;99.90;;;;;;4973672;28;20077;-76
2023/12/05 05:52:52;;;;;;;42.80;20.63;;;3.00;99.90;;;;;;4973581;28;20446;-79
2023/12/05 05:55:18;;;;;;;41.15;19.92;;;2.90;99.90;;;;;;4973759;28;20053;-78
2023/12/05 05:57:45;;;;;;;38.90;19.60;;;2.90;99.90;;;;;;4973059;28;20069;-74
2023/12/05 06:00:11;;;;;;;49.13;22.92;;;2.80;99.90;;;;;;4973575;28;20099;-73
2023/12/05 06:02:38;;;;;;;85.95;44.85;;;2.70;99.90;;;;;;4973171;28;20077;-80
2023/12/05 06:05:04;;;;;;;85.22;39.70;;;2.60;99.90;;;;;;4973518;28;20030;-78
2023/12/05 06:07:30;;;;;;;58.33;27.25;;;2.40;99.90;;;;;;4973236;28;20030;-79
2023/12/05 06:09:56;;;;;;;66.78;29.02;;;2.40;99.90;;;;;;4973272;28;20446;-75
2023/12/05 06:12:22;;;;;;;48.50;23.27;;;2.40;99.90;;;;;;4973234;28;20026;-76
2023/12/05 06:14:49;;;;;;;44.30;22.42;;;2.40;99.90;;;;;;4972582;28;20390;-75
2023/12/05 06:17:15;;;;;;;45.45;23.70;;;2.40;99.90;;;;;;4976897;28;20487;-72
2023/12/05 06:19:42;;;;;;;42.88;24.05;;;2.50;99.90;;;;;;4972885;28;20553;-75
2023/12/05 06:22:08;;;;;;;47.85;29.40;;;2.50;99.90;;;;;;4973149;28;20035;-74
2023/12/05 06:24:34;;;;;;;43.20;26.05;;;2.40;99.90;;;;;;4972999;28;20027;-77
2023/12/05 06:27:00;;;;;;;36.15;21.50;;;2.40;99.90;;;;;;4972107;28;20034;-79
2023/12/05 06:29:26;;;;;;;32.58;20.70;;;2.40;99.90;;;;;;4976195;28;20060;-74
2023/12/05 06:31:52;;;;;;;31.58;19.23;;;2.40;99.90;;;;;;4968943;28;20027;-74
2023/12/05 06:34:17;;;;;;;32.58;20.15;;;2.40;99.90;;;;;;4955036;28;20433;-76
2023/12/05 06:36:43;;;;;;;31.15;18.10;;;2.40;99.90;;;;;;4967866;28;20046;-75
2023/12/05 06:39:09;;;;;;;34.58;19.80;;;2.50;99.90;;;;;;4966368;28;20034;-77
2023/12/05 06:41:36;;;;;;;30.20;16.83;;;2.50;99.90;;;;;;4972308;28;20055;-71
2023/12/05 06:44:02;;;;;;;29.20;16.20;;;2.50;99.90;;;;;;4976161;28;20042;-77
2023/12/05 06:46:29;;;;;;;37.17;19.30;;;2.50;99.90;;;;;;4972470;28;20026;-76
2023/12/05 06:48:55;;;;;;;30.73;18.48;;;2.60;99.90;;;;;;4974417;28;20496;-77
2023/12/05 06:51:22;;;;;;;29.25;18.55;;;2.60;99.90;;;;;;4983831;28;20022;-74
2023/12/05 06:53:47;;;;;;;36.83;19.38;;;2.70;99.90;;;;;;4955914;28;20474;-78
2023/12/05 06:56:15;;;;;;;31.10;18.27;;;2.80;99.90;;;;;;4972756;28;20027;-71
2023/12/05 06:58:42;;;;;;;34.58;19.25;;;2.90;99.90;;;;;;4976662;28;20054;-78
2023/12/05 07:01:08;;;;;;;29.02;15.98;;;2.90;99.90;;;;;;4976477;28;20496;-73
2023/12/05 07:03:34;;;;;;;32.97;16.85;;;2.90;99.90;;;;;;4976685;28;20058;-74
2023/12/05 07:06:00;;;;;;;29.92;16.38;;;2.90;99.90;;;;;;4976637;28;20054;-77
2023/12/05 07:08:26;;;;;;;28.40;16.42;;;3.00;99.90;;;;;;4976417;28;20034;-77
2023/12/05 07:10:52;;;;;;;29.30;16.27;;;3.10;99.90;;;;;;4976629;28;20494;-76
2023/12/05 07:13:18;;;;;;;33.72;18.75;;;3.10;99.90;;;;;;4976323;28;20065;-75
2023/12/05 07:15:44;;;;;;;31.20;18.52;;;3.10;99.90;;;;;;4976878;28;20058;-73
2023/12/05 07:18:10;;;;;;;35.53;17.80;;;3.20;99.90;;;;;;4976094;28;20039;-73
2023/12/05 07:20:36;;;;;;;31.85;18.30;;;3.10;99.90;;;;;;4976496;28;20110;-75
2023/12/05 07:23:02;;;;;;;34.35;19.25;;;3.20;99.90;;;;;;4976282;28;20035;-77
2023/12/05 07:25:29;;;;;;;44.60;27.90;;;3.20;99.90;;;;;;4976399;28;20407;-78
2023/12/05 07:27:55;;;;;;;55.20;32.42;;;3.30;99.90;;;;;;4976162;28;20390;-76
2023/12/05 07:30:20;;;;;;;56.05;36.83;;;3.30;99.90;;;;;;4976210;28;20103;-75
2023/12/05 07:32:46;;;;;;;58.63;38.42;;;3.40;99.90;;;;;;4976281;28;20103;-74
2023/12/05 07:35:12;;;;;;;67.00;40.55;;;3.40;99.90;;;;;;4976069;28;20031;-77
2023/12/05 07:37:38;;;;;;;62.03;38.83;;;3.40;99.90;;;;;;4975986;28;20178;-77
2023/12/05 07:40:07;;;;;;;56.65;33.17;;;3.40;99.90;;;;;;4976089;28;20061;-72
2023/12/05 07:42:33;;;;;;;46.08;28.48;;;3.40;99.90;;;;;;4976167;28;20038;-76
2023/12/05 07:44:59;;;;;;;48.85;27.00;;;3.40;99.90;;;;;;4975862;28;20026;-78
2023/12/05 07:47:25;;;;;;;43.65;26.25;;;3.50;99.90;;;;;;4974239;28;20038;-72
2023/12/05 07:49:51;;;;;;;53.50;25.77;;;3.50;99.90;;;;;;4975577;28;20026;-74
2023/12/05 07:52:17;;;;;;;42.88;26.00;;;3.50;99.90;;;;;;4975573;28;20077;-75
2023/12/05 07:54:42;;;;;;;39.75;22.85;;;3.50;99.90;;;;;;4975654;28;20026;-77
2023/12/05 07:57:08;;;;;;;44.00;23.58;;;3.60;99.90;;;;;;4975420;28;20524;-74
2023/12/05 07:59:34;;;;;;;49.58;25.55;;;3.60;99.90;;;;;;4975860;28;20455;-78
2023/12/05 08:02:00;;;;;;;45.05;23.63;;;3.60;99.90;;;;;;4975420;28;20086;-73
2023/12/05 08:04:26;;;;;;;43.65;24.80;;;3.70;99.90;;;;;;4975569;28;20030;-79
2023/12/05 08:06:52;;;;;;;46.13;26.98;;;3.70;99.90;;;;;;4975456;28;20026;-73
2023/12/05 08:09:18;;;;;;;42.63;24.45;;;3.80;99.90;;;;;;4974931;28;20493;-77
2023/12/05 08:11:44;;;;;;;44.10;23.15;;;3.70;99.90;;;;;;4975103;28;20189;-78
2023/12/05 08:14:10;;;;;;;43.13;23.58;;;3.80;99.90;;;;;;4975517;28;20156;-72
2023/12/05 08:16:37;;;;;;;35.13;21.70;;;3.90;99.90;;;;;;4975281;28;20035;-77
2023/12/05 08:19:02;;;;;;;40.97;22.08;;;4.00;99.90;;;;;;4975296;28;20026;-79
2023/12/05 08:21:28;;;;;;;36.70;21.63;;;4.10;99.90;;;;;;4975225;28;20038;-80
2023/12/05 08:23:54;;;;;;;42.75;21.75;;;4.20;99.90;;;;;;4975201;28;20110;-73
2023/12/05 08:26:20;;;;;;;38.70;22.13;;;4.40;99.90;;;;;;4975386;28;20031;-76
2023/12/05 08:28:46;;;;;;;34.88;20.30;;;4.50;99.90;;;;;;4975144;28;20033;-77
2023/12/05 08:31:12;;;;;;;35.63;19.90;;;4.70;99.90;;;;;;4975312;28;20019;-72
2023/12/05 08:33:38;;;;;;;34.08;19.77;;;4.80;99.90;;;;;;4975209;28;20478;-71
2023/12/05 08:36:04;;;;;;;34.15;17.73;;;5.00;99.90;;;;;;4974903;28;20114;-71
2023/12/05 08:38:30;;;;;;;33.63;18.65;;;5.10;99.90;;;;;;4974871;28;20046;-75
2023/12/05 08:40:56;;;;;;;36.78;18.77;;;5.30;99.90;;;;;;4974935;28;20027;-73
2023/12/05 08:43:22;;;;;;;34.80;22.05;;;5.40;99.90;;;;;;4974898;28;20034;-73
2023/12/05 08:45:48;;;;;;;33.90;20.15;;;5.50;99.90;;;;;;4974484;28;20080;-73
2023/12/05 08:48:14;;;;;;;35.42;21.17;;;5.60;99.90;;;;;;4974735;28;20023;-77
2023/12/05 08:50:41;;;;;;;33.22;20.20;;;5.70;99.80;;;;;;4974689;28;20042;-78
2023/12/05 08:53:07;;;;;;;40.83;19.92;;;5.80;99.60;;;;;;4974792;28;20023;-74
2023/12/05 08:55:32;;;;;;;31.85;18.77;;;5.90;99.10;;;;;;4974408;28;20069;-74
2023/12/05 08:57:58;;;;;;;28.38;17.73;;;6.00;98.90;;;;;;4974756;28;20035;-76
2023/12/05 09:00:25;;;;;;;29.23;18.00;;;6.10;98.70;;;;;;4974293;28;20022;-76
2023/12/05 09:02:51;;;;;;;33.00;18.13;;;6.30;98.60;;;;;;4974735;28;20026;-76
2023/12/05 09:05:17;;;;;;;29.45;18.40;;;6.40;97.70;;;;;;4974186;28;20052;-76
2023/12/05 09:07:42;;;;;;;32.50;17.45;;;6.40;97.70;;;;;;4974505;28;20102;-73
2023/12/05 09:10:08;;;;;;;31.52;19.83;;;6.50;97.80;;;;;;4974096;28;20039;-76
2023/12/05 09:12:34;;;;;;;37.90;22.35;;;6.60;97.40;;;;;;4974513;28;20034;-76
2023/12/05 09:15:00;;;;;;;31.20;17.55;;;6.70;97.00;;;;;;4974017;28;20530;-73
2023/12/05 09:17:28;;;;;;;34.90;17.60;;;6.70;96.60;;;;;;4974119;28;20175;-76
2023/12/05 09:19:54;;;;;;;30.33;19.30;;;6.60;96.60;;;;;;4973378;28;20031;-74
2023/12/05 09:22:20;;;;;;;42.65;21.38;;;6.70;96.20;;;;;;4974201;28;20390;-77
2023/12/05 09:24:47;;;;;;;34.28;20.45;;;6.80;96.60;;;;;;4974149;28;20014;-79
2023/12/05 09:27:13;;;;;;;27.27;16.48;;;6.90;96.60;;;;;;4974117;28;20031;-77
2023/12/05 09:29:39;;;;;;;29.80;19.25;;;7.00;96.30;;;;;;4974147;28;20035;-77
2023/12/05 09:32:05;;;;;;;53.90;28.33;;;7.00;95.90;;;;;;4956517;28;20022;-74
2023/12/05 09:34:30;;;;;;;44.13;27.58;;;7.00;95.50;;;;;;4956400;28;20367;-80
2023/12/05 09:36:56;;;;;;;46.47;28.77;;;7.10;96.10;;;;;;4973931;28;20065;-76
2023/12/05 09:39:23;;;;;;;43.38;28.77;;;7.20;96.10;;;;;;4973701;28;20117;-79
2023/12/05 09:41:52;;;;;;;52.13;29.98;;;7.30;97.40;;;;;;4973866;28;20027;-79
2023/12/05 09:44:23;;;;;;;45.05;28.25;;;7.60;96.20;;;;;;4973729;28;20026;-77
2023/12/05 09:46:58;;;;;;;44.38;26.83;;;7.60;95.30;;;;;;4956697;28;20070;-77
2023/12/05 09:49:27;;;;;;;36.25;20.05;;;7.70;95.00;;;;;;4973401;28;20026;-75
2023/12/05 09:51:57;;;;;;;30.33;18.75;;;7.70;95.20;;;;;;4973719;28;20098;-75
2023/12/05 09:54:25;;;;;;;34.90;21.52;;;7.80;94.60;;;;;;4973503;28;20462;-76
2023/12/05 09:56:55;;;;;;;31.45;18.15;;;7.80;95.00;;;;;;4973147;28;20030;-77
2023/12/05 09:59:21;;;;;;;31.63;20.60;;;7.80;95.30;;;;;;4973643;28;20058;-78
2023/12/05 10:01:49;;;;;;;34.85;21.02;;;7.80;94.30;;;;;;4973004;28;20031;-76
2023/12/05 10:04:18;;;;;;;54.35;31.65;;;7.90;94.50;;;;;;4973558;28;20027;-76
2023/12/05 10:06:47;;;;;;;39.08;20.42;;;7.90;94.40;;;;;;4973145;28;20359;-74
2023/12/05 10:09:15;;;;;;;29.20;17.48;;;7.80;93.70;;;;;;4973146;28;20078;-73
2023/12/05 10:11:42;;;;;;;26.67;14.75;;;7.90;93.90;;;;;;4973252;28;20505;-73
2023/12/05 10:14:08;;;;;;;26.92;15.52;;;7.90;94.40;;;;;;4973434;28;20111;-74
2023/12/05 10:16:35;;;;;;;26.42;15.93;;;8.00;93.80;;;;;;4973272;28;20498;-74
2023/12/05 10:19:01;;;;;;;25.77;14.57;;;8.10;94.60;;;;;;4973236;28;20061;-78
2023/12/05 10:21:27;;;;;;;27.55;15.02;;;8.10;93.90;;;;;;4972844;28;20619;-74
2023/12/05 10:23:54;;;;;;;40.88;22.58;;;8.20;93.90;;;;;;4973283;28;20110;-73
2023/12/05 10:26:20;;;;;;;37.47;21.63;;;8.30;93.60;;;;;;4973189;28;20034;-78
2023/12/05 10:28:53;;;;;;;35.83;15.73;;;8.40;93.80;;;;;;4972790;28;20027;-78
2023/12/05 10:31:19;;;;;;;29.02;15.95;;;8.50;93.70;;;;;;4973064;28;20015;-75
2023/12/05 10:33:46;;;;;;;33.72;19.95;;;8.50;93.30;;;;;;4973063;28;20037;-76
2023/12/05 10:36:13;;;;;;;24.98;15.52;;;8.50;94.00;;;;;;4972690;28;20026;-78
2023/12/05 10:38:48;;;;;;;28.92;16.25;;;8.50;93.60;;;;;;4973125;28;20109;-76
2023/12/05 10:41:24;;;;;;;28.10;16.23;;;8.50;93.50;;;;;;4972637;28;20378;-75
2023/12/05 10:43:51;;;;;;;25.60;15.15;;;8.40;93.00;;;;;;4973182;28;20042;-77
2023/12/05 10:46:17;;;;;;;23.98;14.63;;;8.50;93.30;;;;;;4972846;28;20023;-75
2023/12/05 10:48:45;;;;;;;27.65;13.88;;;8.40;93.40;;;;;;4972924;28;20031;-79
2023/12/05 10:51:11;;;;;;;24.42;14.02;;;8.50;93.40;;;;;;4972810;28;20038;-78
2023/12/05 10:53:39;;;;;;;37.85;22.05;;;8.50;99.90;;;;;;4972946;28;20058;-74
2023/12/05 10:56:26;;;;;;;28.60;14.90;;;8.60;93.70;;;;;;4972849;28;20030;-74
2023/12/05 10:58:52;;;;;;;29.13;14.60;;;8.60;93.50;;;;;;4972755;28;20489;-74
2023/12/05 11:01:21;;;;;;;27.08;15.27;;;8.70;95.10;;;;;;4972724;28;20015;-76
2023/12/05 11:03:48;;;;;;;28.42;15.68;;;8.70;98.50;;;;;;4972832;28;20046;-79
2023/12/05 11:06:14;;;;;;;32.20;18.42;;;8.70;93.20;;;;;;4972761;28;20027;-74
2023/12/05 11:08:40;;;;;;;23.52;13.82;;;8.80;93.30;;;;;;4972676;28;20108;-79
2023/12/05 11:11:07;;;;;;;28.73;15.45;;;8.70;92.40;;;;;;4972540;28;20043;-75
2023/12/05 11:13:35;;;;;;;29.80;14.98;;;8.70;92.50;;;;;;4972642;28;20026;-79
2023/12/05 11:16:16;;;;;;;24.13;14.02;;;8.80;97.00;;;;;;4972377;28;20023;-77
2023/12/05 11:18:44;;;;;;;30.23;17.70;;;8.70;92.30;;;;;;4972549;28;20150;-74
2023/12/05 11:21:46;;;;;;;31.45;17.83;;;8.80;92.80;;;;;;4972748;28;20019;-75
2023/12/05 11:24:50;;;;;;;29.08;18.13;;;8.90;92.80;;;;;;4964738;28;20027;-75
2023/12/05 11:27:22;;;;;;;;;;;9.00;96.80;;;;;;4972971;28;20082;-74
2023/12/05 11:30:07;;;;;;;27.90;14.50;;;9.00;92.40;;;;;;4972247;28;19917;-75
2023/12/05 11:32:36;;;;;;;24.75;14.07;;;9.00;92.50;;;;;;4972715;28;20089;-75
2023/12/05 11:35:16;;;;;;;26.40;14.48;;;9.00;92.10;;;;;;4972467;28;20073;-74
2023/12/05 11:38:06;;;;;;;25.73;15.45;;;9.00;92.80;;;;;;4972286;28;20100;-78
2023/12/05 11:40:32;;;;;;;27.00;15.27;;;9.10;92.30;;;;;;4972068;28;20406;-73
2023/12/05 11:43:12;;;;;;;25.83;14.05;;;9.30;92.80;;;;;;4973289;28;20035;-77
2023/12/05 11:45:42;;;;;;;27.60;14.30;;;9.30;91.50;;;;;;4975899;28;20022;-76
2023/12/05 11:48:24;;;;;;;27.05;14.05;;;9.30;91.90;;;;;;4976291;28;20042;-74
2023/12/05 11:50:51;;;;;;;24.70;14.43;;;9.40;92.20;;;;;;4975430;28;20025;-76
2023/12/05 11:53:20;;;;;;;27.85;16.08;;;9.40;91.40;;;;;;4975864;28;20082;-73
2023/12/05 11:55:49;;;;;;;24.27;14.75;;;9.40;95.40;;;;;;4975932;28;20023;-73
2023/12/05 11:58:32;;;;;;;26.48;15.68;;;9.40;91.20;;;;;;4975803;28;20043;-77
2023/12/05 12:01:03;;;;;;;26.55;14.43;;;9.40;91.50;;;;;;4975626;28;20041;-77
2023/12/05 12:04:09;;;;;;;30.08;13.55;;;9.50;91.60;;;;;;4975505;28;20054;-77
2023/12/05 12:06:36;;;;;;;27.35;14.35;;;9.50;91.40;;;;;;4973260;28;20039;-77
2023/12/05 12:09:02;;;;;;;27.65;15.57;;;9.50;91.50;;;;;;4975236;28;20034;-73
2023/12/05 12:11:28;;;;;;;28.48;16.27;;;9.50;91.80;;;;;;4975664;28;20061;-79
2023/12/05 12:13:54;;;;;;;28.48;15.63;;;9.50;91.70;;;;;;4975265;28;20371;-76
2023/12/05 12:16:20;;;;;;;36.92;17.10;;;9.50;91.70;;;;;;4975683;28;20030;-78
2023/12/05 12:18:47;;;;;;;29.50;16.08;;;9.50;91.50;;;;;;4975449;28;20500;-74
2023/12/05 12:21:13;;;;;;;24.00;13.40;;;9.50;91.60;;;;;;4975475;28;20035;-76
2023/12/05 12:23:39;;;;;;;21.48;14.07;;;9.60;91.90;;;;;;4974984;28;20027;-75
2023/12/05 12:26:09;;;;;;;22.65;12.30;;;9.70;91.30;;;;;;4975108;28;20038;-77
2023/12/05 12:28:35;;;;;;;24.15;13.35;;;9.80;91.00;;;;;;4962750;28;20023;-76
2023/12/05 12:31:02;;;;;;;27.58;15.15;;;9.90;91.30;;;;;;4975080;28;20027;-72
2023/12/05 12:33:41;;;;;;;27.85;14.55;;;9.90;91.30;;;;;;4975100;28;20026;-79
2023/12/05 12:36:09;;;;;;;26.83;13.98;;;9.90;91.10;;;;;;4974704;28;20122;-74
2023/12/05 12:38:36;;;;;;;25.85;13.48;;;9.90;90.30;;;;;;4975189;28;20031;-76
2023/12/05 12:41:02;;;;;;;21.88;12.95;;;9.80;90.50;;;;;;4974995;28;20034;-79